メインページ
METAR-TAF:

METAR-TAF

空港 :

シモン・ボリバル国際空港

カラカス, ベネズエラ

緯度: 10-36N, 経度: 066-59W, 海抜: 43m

現時点の気象観測

当レポートは55分前の23:00(UTC)に作成
の風 6kt
気温 26°C
湿度 84%
気圧 1009 hPa
視程10km以上
高度1600ftの千切れ雲あり

METAR: SVMI 162300Z 09006KT 9999 BKN016 26/23 Q1009

時間: 19:55 (23:55 UTC)

予報

当レポートは1時間55分前の22:00(UTC)に作成
予報は17日の 00時(UTC)から 18日の 00時(UTC)まで有効
北東の風 5kt
視程10km以上
高度1600ftの雲はほとんどない
17日の 05時(UTC)から 17日の 09時(UTC)まで一時的に
の風 kt
視程10km以上
1,500メートル以下は雲なし、積乱雲なし
17日の 10時(UTC)から 17日の 14時(UTC)まで徐々に
北東の風 5kt
高度1600ftの雲は散在している
高度7000ftの雲は散在している

TAF: SVMI 162200Z 1700/1800 05005KT 9999 FEW016 TX33/18Z TN24/08Z TEMPO 1705/1709 00000KT CAVOK BECMG 1710/1714 05005KT SCT016 SCT070

4,000以上の空港の気象観測と天気予報(METAR報とTAF報)

利用可能な観測所は地図上に黄色い丸と赤い丸で示す。

丸の上にカーソルを重ねると観測所名を参照できる。

次にクリックすると気象観測と天気予報を参照できる。

マップの切り替え:黒色「×」印の緑ボタンをクリックして拡大、「-」印の緑ボタンをクリックして縮小、緑色の三角印をクリックして隣りの地図に切り替え


METAR-TAF: